| time (UTC) | temp F | wind direction | speed MPH | gust MPH | rain 1hr in | rain 24hr in | rain mn in | humidity % | barometer mb |
| 20260905093014 | 50 | 282 | 2.0 | 5.0 | 0.00 | 0.00 | 0.00 | 77 | 1018.1 |
| 20260905091513 | 48 | 281 | 1.0 | 3.0 | 0.00 | 0.00 | 0.00 | 81 | 1017.8 |
| 20260905090009 | 48 | 269 | 1.0 | 3.0 | 0.00 | 0.00 | 0.00 | 76 | 1017.5 |
| 20260905084505 | 49 | 269 | 0.0 | 2.0 | 0.00 | 0.00 | 0.00 | 76 | 1017.4 |
| 20260905083004 | 51 | 269 | 0.0 | 5.0 | 0.00 | 0.00 | 0.00 | 72 | 1017.0 |
| 20260905081503 | 52 | 21 | 1.0 | 4.0 | 0.00 | 0.00 | 0.00 | 71 | 1016.7 |
| 20260905080139 | 51 | 52 | 5.0 | 7.0 | 0.00 | 0.00 | 0.00 | 75 | 1017.0 |
| 20260905074558 | 49 | 134 | 0.0 | 5.0 | 0.00 | 0.00 | 0.00 | 76 | 1017.9 |
| 20260905073054 | 50 | 335 | 0.0 | 4.0 | 0.00 | 0.00 | 0.00 | 72 | 1017.9 |
| 20260905071551 | 54 | 334 | 1.0 | 3.0 | 0.00 | 0.00 | 0.00 | 67 | 1017.8 |
| 20260905070053 | 54 | 335 | 2.0 | 8.0 | 0.00 | 0.00 | 0.00 | 67 | 1017.4 |
| 20260905064552 | 54 | 333 | 3.0 | 6.0 | 0.00 | 0.00 | 0.00 | 70 | 1017.1 |
| 20260905063044 | 55 | 290 | 6.0 | 11.0 | 0.00 | 0.00 | 0.00 | 69 | 1017.2 |
| 20260905061540 | 56 | 314 | 2.0 | 5.0 | 0.00 | 0.00 | 0.00 | 64 | 1017.4 |
| 20260905060046 | 56 | 300 | 5.0 | 8.0 | 0.00 | 0.00 | 0.00 | 61 | 1017.3 |
| 20260905054538 | 57 | 290 | 4.0 | 7.0 | 0.00 | 0.00 | 0.00 | 60 | 1016.9 |
| 20260905053034 | 56 | 280 | 2.0 | 5.0 | 0.00 | 0.00 | 0.00 | 64 | 1016.9 |
| 20260905051548 | 54 | 280 | 1.0 | 2.0 | 0.00 | 0.00 | 0.00 | 64 | 1016.7 |
| 20260905050037 | 57 | 280 | 0.0 | 3.0 | 0.00 | 0.00 | 0.00 | 59 | 1016.9 |
| 20260905044540 | 58 | 280 | 0.0 | 3.0 | 0.00 | 0.00 | 0.00 | 57 | 1016.9 |
| 20260905043036 | 58 | 26 | 2.0 | 9.0 | 0.00 | 0.00 | 0.00 | 58 | 1016.6 |
| 20260905041534 | 57 | 232 | 2.0 | 6.0 | 0.00 | 0.00 | 0.00 | 58 | 1017.3 |
| 20260905040035 | 57 | 26 | 1.0 | 4.0 | 0.00 | 0.00 | 0.00 | 59 | 1016.7 |
| 20260905034526 | 59 | 26 | 0.0 | 3.0 | 0.00 | 0.00 | 0.00 | 53 | 1015.8 |
| 20260905033026 | 61 | 25 | 2.0 | 8.0 | 0.00 | 0.00 | 0.00 | 50 | 1015.7 |
| 20260905031534 | 62 | 322 | 1.0 | 4.0 | 0.00 | 0.00 | 0.00 | 50 | 1015.9 |
| 20260905030024 | 63 | 322 | 1.0 | 5.0 | 0.00 | 0.00 | 0.00 | 48 | 1015.8 |
| 20260905024521 | 63 | 294 | 2.0 | 4.0 | 0.00 | 0.00 | 0.00 | 47 | 1015.4 |
| 20260905023020 | 63 | 16 | 0.0 | 4.0 | 0.00 | 0.00 | 0.00 | 46 | 1015.1 |
| 20260905021531 | 64 | 15 | 0.0 | 3.0 | 0.00 | 0.00 | 0.00 | 47 | 1015.1 |
| 20260905020017 | 65 | 16 | 0.0 | 8.0 | 0.00 | 0.00 | 0.00 | 44 | 1014.7 |
| 20260905014513 | 65 | 326 | 4.0 | 12.0 | 0.00 | 0.00 | 0.00 | 43 | 1014.0 |
| 20260905013011 | 66 | 304 | 8.0 | 19.0 | 0.00 | 0.00 | 0.00 | 42 | 1013.7 |
| 20260905011511 | 67 | 306 | 11.0 | 17.0 | 0.00 | 0.00 | 0.00 | 41 | 1013.6 |
| 20260905010011 | 67 | 313 | 10.0 | 17.0 | 0.00 | 0.00 | 0.00 | 40 | 1013.6 |
| 20260905004512 | 67 | 331 | 10.0 | 19.0 | 0.00 | 0.00 | 0.00 | 40 | 1013.4 |
| 20260905003020 | 68 | 272 | 11.0 | 18.0 | 0.00 | 0.00 | 0.00 | 39 | 1013.5 |
| 20260905001510 | 69 | 314 | 9.0 | 18.0 | 0.00 | 0.00 | 0.00 | 39 | 1013.6 |
| 20260905000009 | 70 | 306 | 10.0 | 18.0 | 0.00 | 0.00 | 0.00 | 37 | 1013.6 |
| 20260904234507 | 72 | 329 | 9.0 | 19.0 | 0.00 | 0.00 | 0.00 | 37 | 1013.9 |
| 20260904233018 | 71 | 304 | 7.0 | 15.0 | 0.00 | 0.00 | 0.00 | 38 | 1013.9 |
| 20260904231507 | 72 | 288 | 6.0 | 18.0 | 0.00 | 0.00 | 0.00 | 37 | 1013.9 |
| 20260904230007 | 72 | 333 | 9.0 | 17.0 | 0.00 | 0.00 | 0.00 | 36 | 1013.7 |
| 20260904224502 | 71 | 331 | 8.0 | 16.0 | 0.00 | 0.00 | 0.00 | 37 | 1013.7 |
| 20260904223101 | 70 | 317 | 6.0 | 15.0 | 0.00 | 0.00 | 0.00 | 38 | 1013.4 |
| 20260904223001 | 70 | 315 | 6.0 | 15.0 | 0.00 | 0.00 | 0.00 | 38 | 1013.4 |
| 20260904221558 | 72 | 309 | 11.0 | 16.0 | 0.00 | 0.00 | 0.00 | 36 | 1013.3 |
| 20260904220107 | 72 | 300 | 8.0 | 18.0 | 0.00 | 0.00 | 0.00 | 36 | 1013.1 |
| 20260904214555 | 72 | 275 | 12.0 | 18.0 | 0.00 | 0.00 | 0.00 | 36 | 1013.0 |
| 20260904213053 | 71 | 286 | 12.0 | 21.0 | 0.00 | 0.00 | 0.00 | 37 | 1012.7 |
| 20260904211550 | 72 | 276 | 12.0 | 22.0 | 0.00 | 0.00 | 0.00 | 37 | 1012.5 |
| 20260904210048 | 72 | 284 | 13.0 | 19.0 | 0.00 | 0.00 | 0.00 | 37 | 1012.4 |
| 20260904204546 | 72 | 265 | 11.0 | 18.0 | 0.00 | 0.00 | 0.00 | 39 | 1012.3 |
| 20260904203047 | 72 | 294 | 11.0 | 17.0 | 0.00 | 0.00 | 0.00 | 38 | 1012.2 |
| 20260904201555 | 72 | 334 | 6.0 | 17.0 | 0.00 | 0.00 | 0.00 | 40 | 1012.0 |
| 20260904200049 | 71 | 294 | 10.0 | 16.0 | 0.00 | 0.00 | 0.00 | 38 | 1011.9 |
| 20260904194540 | 72 | 279 | 9.0 | 16.0 | 0.00 | 0.00 | 0.00 | 38 | 1011.7 |
| 20260904193036 | 71 | 331 | 9.0 | 15.0 | 0.00 | 0.00 | 0.00 | 38 | 1011.3 |
| 20260904191537 | 70 | 315 | 6.0 | 18.0 | 0.00 | 0.00 | 0.00 | 40 | 1011.1 |
| 20260904190029 | 69 | 271 | 3.0 | 12.0 | 0.00 | 0.00 | 0.00 | 41 | 1011.1 |
| 20260904184530 | 68 | 269 | 8.0 | 14.0 | 0.00 | 0.00 | 0.00 | 42 | 1011.0 |
| 20260904183025 | 67 | 298 | 6.0 | 12.0 | 0.00 | 0.00 | 0.00 | 44 | 1010.9 |
| 20260904181524 | 68 | 292 | 4.0 | 9.0 | 0.00 | 0.00 | 0.00 | 44 | 1010.9 |
| 20260904180019 | 66 | 290 | 4.0 | 8.0 | 0.00 | 0.00 | 0.00 | 45 | 1010.9 |
| 20260904174525 | 66 | 299 | 1.0 | 9.0 | 0.00 | 0.00 | 0.00 | 47 | 1010.8 |
| 20260904173014 | 66 | 276 | 1.0 | 7.0 | 0.00 | 0.00 | 0.00 | 46 | 1010.5 |
| 20260904171513 | 65 | 313 | 1.0 | 4.0 | 0.00 | 0.00 | 0.00 | 45 | 1010.3 |
| 20260904170011 | 63 | 313 | 2.0 | 4.0 | 0.00 | 0.00 | 0.00 | 48 | 1010.2 |
| 20260904164512 | 63 | 277 | 4.0 | 8.0 | 0.00 | 0.00 | 0.00 | 49 | 1010.3 |
| 20260904163013 | 63 | 279 | 2.0 | 7.0 | 0.00 | 0.00 | 0.00 | 50 | 1010.4 |
| 20260904161509 | 63 | 281 | 1.0 | 7.0 | 0.00 | 0.00 | 0.00 | 49 | 1010.1 |
| 20260904160008 | 63 | 215 | 5.0 | 10.0 | 0.00 | 0.00 | 0.00 | 45 | 1010.1 |
| 20260904154509 | 64 | 221 | 8.0 | 10.0 | 0.00 | 0.00 | 0.00 | 45 | 1009.9 |
| 20260904153007 | 64 | 165 | 5.0 | 11.0 | 0.00 | 0.00 | 0.00 | 45 | 1009.3 |
| 20260904151507 | 65 | 132 | 5.0 | 11.0 | 0.00 | 0.00 | 0.00 | 44 | 1008.9 |
| 20260904150004 | 63 | 74 | 7.0 | 11.0 | 0.00 | 0.00 | 0.00 | 47 | 1008.7 |
| 20260904144620 | 63 | 76 | 8.0 | 10.0 | 0.00 | 0.00 | 0.00 | 47 | 1008.7 |
| 20260904143056 | 60 | 82 | 3.0 | 7.0 | 0.00 | 0.00 | 0.00 | 51 | 1008.8 |
| 20260904141554 | 59 | 290 | 2.0 | 4.0 | 0.00 | 0.00 | 0.00 | 57 | 1008.9 |
| 20260904140053 | 59 | 245 | 1.0 | 10.0 | 0.00 | 0.00 | 0.00 | 54 | 1008.9 |
| 20260904134550 | 55 | 76 | 4.0 | 7.0 | 0.00 | 0.00 | 0.00 | 65 | 1008.7 |
| 20260904133049 | 54 | 26 | 1.0 | 3.0 | 0.00 | 0.00 | 0.00 | 65 | 1008.9 |
| 20260904131545 | 53 | 26 | 2.0 | 4.0 | 0.00 | 0.00 | 0.00 | 65 | 1009.0 |
| 20260904130043 | 51 | 26 | 2.0 | 4.0 | 0.00 | 0.00 | 0.00 | 66 | 1008.7 |
| 20260904124549 | 53 | 26 | 2.0 | 5.0 | 0.00 | 0.00 | 0.00 | 61 | 1008.4 |
| 20260904123042 | 54 | 26 | 3.0 | 8.0 | 0.00 | 0.00 | 0.00 | 60 | 1008.4 |
| 20260904121537 | 54 | 22 | 4.0 | 10.0 | 0.00 | 0.00 | 0.00 | 60 | 1008.5 |
| 20260904120037 | 54 | 9 | 7.0 | 10.0 | 0.00 | 0.00 | 0.00 | 58 | 1008.6 |
| 20260904114540 | 54 | 355 | 8.0 | 10.0 | 0.00 | 0.00 | 0.00 | 58 | 1008.7 |
| 20260904113040 | 55 | 15 | 8.0 | 10.0 | 0.00 | 0.00 | 0.00 | 57 | 1008.7 |
| 20260904111533 | 57 | 18 | 6.0 | 11.0 | 0.00 | 0.00 | 0.00 | 54 | 1008.6 |
| 20260904110032 | 57 | 11 | 8.0 | 12.0 | 0.00 | 0.00 | 0.00 | 53 | 1008.7 |
| 20260904104532 | 57 | 355 | 4.0 | 11.0 | 0.00 | 0.00 | 0.00 | 54 | 1008.8 |
| 20260904103036 | 56 | 11 | 9.0 | 13.0 | 0.00 | 0.00 | 0.00 | 54 | 1009.1 |
| 20260904101526 | 55 | 15 | 10.0 | 13.0 | 0.00 | 0.00 | 0.00 | 58 | 1009.2 |
| 20260904100025 | 54 | 355 | 8.0 | 13.0 | 0.00 | 0.00 | 0.00 | 59 | 1009.3 |
| 20260904094522 | 54 | 360 | 7.0 | 10.0 | 0.00 | 0.00 | 0.00 | 59 | 1009.5 |